Terminal Aerodrome Forecast
Issued by NWS Albany, NY

Home | Current Version | Previous Version | Text Only | Print | Product List | Glossary On
Versions: 1 2 3 4 5 6 7 8 9 10 11 12 13 14 15
000
FTUS41 KALY 242300
TAFALB
TAF
KALB 242322Z 2500/2524 32013G21KT P6SM SKC
     FM250200 31007KT P6SM SKC
     FM250600 00000KT P6SM SKC
     FM251500 13005KT P6SM SCT150 SCT250
     FM252000 17009KT P6SM SCT100 BKN200=

USA.gov is the U.S. government's official web portal to all federal, state and local government web resources and services.